Flight Track Log - Related Links

Times and Time Zones

All times are in EDT time to prevent confusion due to time zone crossing. See the UCA3587 flight status page for this flight to view local times or setup timezone preferences in your user account.

Time Position Orientation Groundspeed Altitude Reporting Facility
EDT Latitude Longitude Course Direction KTS MPH feet Rate Location/Type
Sat 06:38:10 AM 39.1833 -76.7000 38° Northeast 156 180 1,300  Level Potomac TRACON
Sat 06:39:16 AM 39.2333 -76.6667 27° Northeast 194 223 2,200 900 Climbing Potomac TRACON
Sat 06:40:10 AM 39.2500 -76.6167 67° East 191 220 3,100 1,368 Climbing Potomac TRACON
Sat 06:41:10 AM 39.2333 -76.5500 108° East 175 201 4,800 1,632 Climbing Potomac TRACON
Sat 06:42:00 AM 39.1500 -76.2197 90° East  Level FlightAware
Sat 06:42:04 AM 39.2333 -76.5000 90° East 163 188 6,200  Level Potomac TRACON
Sat 06:43:00 AM 39.1983 -76.1683 38° Northeast  Level FlightAware
Sat 06:43:04 AM 39.2167 -76.4500 113° Southeast 162 186 7,500  Level Potomac TRACON
Sat 06:44:04 AM 39.2000 -76.4000 113° Southeast 189 217 8,400 850 Climbing Potomac TRACON
Sat 06:45:04 AM 39.1833 -76.3167 104° East 209 241 9,200 750 Climbing Potomac TRACON
Sat 06:46:04 AM 39.1833 -76.2500 90° East 227 261 9,900 800 Climbing Potomac TRACON
Sat 06:47:04 AM 39.2333 -76.2000 38° Northeast 221 254 10,800 346 Climbing Potomac TRACON
Sat 06:49:15 AM 39.3333 -76.0500 49° Northeast 267 307 11,000 63 Climbing Philadelphia TRACON
Sat 06:50:15 AM 39.3833 -75.9833 46° Northeast 276 318 11,000  Level Philadelphia TRACON
Sat 06:51:15 AM 39.4333 -75.9000 52° Northeast 280 322 11,000  Level Philadelphia TRACON
Sat 06:52:15 AM 39.4833 -75.8333 46° Northeast 282 325 11,000  Level Philadelphia TRACON
Sat 06:53:15 AM 39.5500 -75.7667 38° Northeast 282 325 11,000  Level Philadelphia TRACON
Sat 06:54:16 AM 39.6000 -75.7000 46° Northeast 276 318 11,000 -198 Level Philadelphia TRACON
Sat 06:55:16 AM 39.6667 -75.6333 38° Northeast 281 323 10,600 -450 Descending Philadelphia TRACON
Sat 06:56:16 AM 39.7000 -75.5333 67° East 291 335 10,100 -286 Descending Philadelphia TRACON
Sat 06:57:22 AM 39.7333 -75.4333 67° East 284 327 10,000 -48 Descending Philadelphia TRACON
Sat 06:58:22 AM 39.7500 -75.3333 78° East 276 318 10,000  Level Philadelphia TRACON
Sat 06:59:16 AM 39.7833 -75.2667 57° Northeast 272 313 10,000  Level Philadelphia TRACON
Sat 07:00:16 AM 39.8000 -75.1667 78° East 272 313 10,000  Level Philadelphia TRACON
Sat 07:01:16 AM 39.8333 -75.0667 67° East 267 307 10,000 -300 Level Philadelphia TRACON
Sat 07:02:16 AM 39.8667 -74.9833 62° Northeast 274 315 9,400 -1,050 Descending Philadelphia TRACON
Sat 07:03:16 AM 39.9167 -74.9167 46° Northeast 278 320 7,900 -1,200 Descending Philadelphia TRACON
Sat 07:04:16 AM 39.9667 -74.8500 46° Northeast 239 275 7,000 -535 Descending Philadelphia TRACON
Sat 07:04:57 AM 39.9833 -74.8000 66° East 236 272 7,000  Level New TRACON
Sat 07:05:57 AM 40.0333 -74.7333 46° Northeast 241 277 7,000  Level New TRACON
Sat 07:06:51 AM 40.0833 -74.6833 37° Northeast 244 281 7,000  Level New TRACON
Sat 07:07:51 AM 40.1333 -74.6167 46° Northeast 245 282 7,000  Level New TRACON
Sat 07:08:51 AM 40.1833 -74.5667 37° Northeast 246 283 7,000 -400 Level New TRACON
Sat 07:09:51 AM 40.2500 -74.5167 30° Northeast 258 297 6,200 -579 Descending New TRACON
Sat 07:10:45 AM 40.3000 -74.4667 37° Northeast 248 285 5,900 -789 Descending New TRACON
Sat 07:11:45 AM 40.3500 -74.4333 27° Northeast 250 288 4,700 -1,263 Descending New TRACON
Sat 07:12:39 AM 40.4000 -74.3833 37° Northeast 248 285 3,500 -895 Descending New TRACON
Sat 07:13:39 AM 40.4500 -74.3333 37° Northeast 227 261 3,000 -250 Descending New TRACON
Sat 07:14:39 AM 40.5167 -74.2833 30° Northeast 230 265 3,000 -158 Level New TRACON
Sat 07:15:33 AM 40.5500 -74.2500 37° Northeast 201 231 2,700 -684 Descending New TRACON
Sat 07:16:33 AM 40.6000 -74.2167 27° Northeast 184 212 1,700 -1,000 Descending New TRACON
Sat 07:17:27 AM 40.6500 -74.2000 14° North 182 209 800 -1,000 Descending New TRACON
Sat 07:19:00 AM 40.6833 -74.1667 21° North  Level FlightAware

Login

Don't have an account? Register now (free) for customized features, flight alerts, and more!